マドリード・バラハス国際空港の過去48時間の天気

マドリード・バラハス国際空港 (Madrid / Barajas)

現在時刻: 8/4 12:44 CEST (8/4 10:44 UTC) 以下の時間は現地時間です。

過去48時間のMETAR気象情報
時間 風向 風速(m/s) 視程 気温(℃) 湿度(%) 気圧(hPa) 天気現象
4 12:30 不定 2 10km以上 27 30 1017
4 12:00 北東 2 10km以上 26 34 1017
4 11:30 北北東 3 10km以上 25 36 1018
4 11:00 3 10km以上 24 38 1018
4 10:30 東北東 4 10km以上 22 46 1018
4 10:00 北東 4 10km以上 22 43 1018
4 09:30 北東 5 10km以上 20 49 1018
4 09:00 北東 3 10km以上 20 49 1018
4 08:30 北北東 2 10km以上 19 52 1018
4 08:00 3 10km以上 18 60 1018
4 07:30 2 10km以上 18 60 1018
4 07:00 東北東 1 10km以上 18 60 1018
4 06:30 北東 1 10km以上 18 60 1017
4 06:00 北北東 2 10km以上 19 56 1017
4 05:30 3 10km以上 19 56 1017
4 05:00 東北東 4 10km以上 20 53 1017
4 04:30 北東 4 10km以上 20 53 1017
4 04:00 北東 3 10km以上 20 53 1017
4 03:30 北東 3 10km以上 21 49 1017
4 03:00 北東 3 10km以上 22 43 1017
4 02:30 東北東 3 10km以上 22 46 1017
4 02:00 東北東 3 10km以上 23 41 1017
4 01:30 北東 4 10km以上 24 38 1016
4 01:00 北東 3 10km以上 25 34 1016
4 00:30 北東 3 10km以上 25 32 1016
4 00:00 北東 2 10km以上 25 32 1016
3 23:30 不定 1 10km以上 26 28 1016
3 23:00 北北東 4 10km以上 27 28 1015
3 22:30 5 10km以上 28 27 1015
3 22:00 5 10km以上 28 27 1014
3 21:30 5 10km以上 29 25 1014
3 21:00 5 10km以上 30 22 1014
3 20:30 5 10km以上 31 19 1014
3 20:00 6 10km以上 32 18 1014
3 19:30 5 10km以上 32 17 1014
3 19:00 4 10km以上 33 16 1014
3 18:30 4 10km以上 33 17 1014
3 18:00 3 10km以上 33 19 1014
3 17:30 5 10km以上 33 17 1014
3 17:00 北北東 3 10km以上 33 19 1014
3 16:30 5 10km以上 32 20 1014
3 16:00 4 10km以上 32 20 1015
3 15:30 5 10km以上 32 21 1015
3 15:00 北北東 4 10km以上 32 21 1015
3 14:30 5 10km以上 31 22 1016
3 14:00 3 10km以上 30 22 1016
3 13:30 3 10km以上 30 22 1017
3 13:00 北北東 3 10km以上 29 25 1017
3 12:30 2 10km以上 28 27 1017
3 12:00 4 10km以上 27 28 1017
3 11:30 3 10km以上 27 30 1017
3 11:00 北北東 3 10km以上 25 34 1017
3 10:30 3 10km以上 24 36 1017
3 10:00 東北東 2 10km以上 23 38 1017
3 09:30 東北東 2 10km以上 22 41 1017
3 09:00 不定 2 10km以上 21 46 1017
3 08:30 東北東 3 10km以上 20 49 1017
3 08:00 北東 3 10km以上 20 49 1017
3 07:30 不定 2 10km以上 19 52 1017
3 07:00 北東 2 10km以上 19 56 1017
3 06:30 不定 2 10km以上 20 53 1017
3 06:00 東北東 2 10km以上 20 53 1016
3 05:30 北東 4 10km以上 20 56 1016
3 05:00 東北東 3 10km以上 20 56 1016
3 04:30 東北東 4 10km以上 21 53 1016
3 04:00 東北東 4 10km以上 21 53 1016
3 03:30 北東 4 10km以上 22 50 1016
3 03:00 不定 2 10km以上 22 50 1016
3 02:30 東北東 3 10km以上 22 50 1016
3 02:00 東北東 3 10km以上 23 44 1016
3 01:30 東北東 2 10km以上 24 36 1016
3 01:00 北東 2 10km以上 24 36 1017
3 00:30 北東 4 10km以上 26 34 1016
3 00:00 北北東 5 10km以上 26 32 1016
2 23:30 北北東 6 10km以上 27 32 1016
2 23:00 北北東 7 10km以上 27 34 1015
2 22:30 北北東 4 10km以上 28 32 1015
2 22:00 4 10km以上 28 32 1014
2 21:30 4 10km以上 30 31 1014
2 21:00 4 10km以上 31 29 1014
2 20:30 北西 6 10km以上 33 20 1013
2 20:00 西北西 5 10km以上 35 18 1013
2 19:30 西北西 5 10km以上 35 17 1013
2 19:00 西北西 7 10km以上 35 17 1013
2 18:30 西 7 10km以上 35 17 1014
2 18:00 西南西 6 10km以上 36 12 1014
2 17:30 西 6 10km以上 37 11 1014
2 17:00 南南西 3 10km以上 36 16 1014
2 16:30 南南西 6 10km以上 36 16 1014
2 16:00 西南西 3 10km以上 36 17 1014
2 15:30 南南東 2 10km以上 35 19 1015
2 15:00 南西 2 10km以上 34 22 1015
2 14:30 西 4 10km以上 34 22 1016
2 14:00 西 2 10km以上 34 22 1016
2 13:30 北北西 1 10km以上 33 24 1017
2 13:00 南西 2 10km以上 32 31 1017
LEMD 041030Z VRB04KT CAVOK 27/08 Q1017 NOSIG
LEMD 041000Z 05004KT CAVOK 26/09 Q1017 NOSIG
LEMD 040930Z 03006KT 340V120 CAVOK 25/09 Q1018 NOSIG
LEMD 040900Z 08005KT 030V160 CAVOK 24/09 Q1018 NOSIG
LEMD 040830Z 06007KT 360V120 CAVOK 22/10 Q1018 NOSIG
LEMD 040800Z 05007KT 010V110 CAVOK 22/09 Q1018 NOSIG
LEMD 040730Z 04009KT 350V110 CAVOK 20/09 Q1018 NOSIG
LEMD 040700Z 04005KT 350V120 CAVOK 20/09 Q1018 NOSIG
LEMD 040630Z 02004KT 340V060 CAVOK 19/09 Q1018 NOSIG
LEMD 040600Z 01005KT 330V060 CAVOK 18/10 Q1018 NOSIG
LEMD 040530Z 36004KT 320V060 CAVOK 18/10 Q1018 NOSIG
LEMD 040500Z 06002KT CAVOK 18/10 Q1018 NOSIG
LEMD 040430Z 05002KT CAVOK 18/10 Q1017 NOSIG
LEMD 040400Z 03004KT CAVOK 19/10 Q1017 NOSIG
LEMD 040330Z VRB05KT CAVOK 19/10 Q1017 NOSIG
LEMD 040300Z 06008KT 010V110 CAVOK 20/10 Q1017 NOSIG
LEMD 040230Z 05008KT 340V100 CAVOK 20/10 Q1017 NOSIG
LEMD 040200Z 04006KT CAVOK 20/10 Q1017 NOSIG
LEMD 040130Z 05006KT CAVOK 21/10 Q1017 NOSIG
LEMD 040100Z 05005KT 340V140 CAVOK 22/09 Q1017 NOSIG
LEMD 040030Z 06006KT 010V120 CAVOK 22/10 Q1017 NOSIG
LEMD 040000Z 06006KT 350V160 CAVOK 23/09 Q1017 NOSIG
LEMD 032330Z 05008KT 340V100 CAVOK 24/09 Q1016 NOSIG
LEMD 032300Z 05006KT 350V110 CAVOK 25/08 Q1016 NOSIG
LEMD 032230Z 05005KT 010V100 CAVOK 25/07 Q1016 NOSIG
LEMD 032200Z 04004KT 350V110 CAVOK 25/07 Q1016 NOSIG
LEMD 032130Z VRB01KT CAVOK 26/06 Q1016 NOSIG
LEMD 032100Z 02007KT 340V070 CAVOK 27/07 Q1015 NOSIG
LEMD 032030Z 01009KT 340V040 CAVOK 28/07 Q1015 NOSIG
LEMD 032000Z 36010KT CAVOK 28/07 Q1014 NOSIG
LEMD 031930Z 36009KT 330V030 CAVOK 29/07 Q1014 NOSIG
LEMD 031900Z 01010KT CAVOK 30/06 Q1014 NOSIG
LEMD 031830Z 01009KT 350V060 CAVOK 31/05 Q1014 NOSIG
LEMD 031800Z 36011KT 330V030 CAVOK 32/05 Q1014 NOSIG
LEMD 031730Z 01009KT 340V040 CAVOK 32/04 Q1014 NOSIG
LEMD 031700Z 36008KT 330V030 CAVOK 33/04 Q1014 NOSIG
LEMD 031630Z 35008KT 310V040 CAVOK 33/05 Q1014 NOSIG
LEMD 031600Z 01005KT 300V110 CAVOK 33/06 Q1014 NOSIG
LEMD 031530Z 36009KT 310V060 CAVOK 33/05 Q1014 NOSIG
LEMD 031500Z 02006KT 310V100 CAVOK 33/06 Q1014 NOSIG
LEMD 031430Z 36009KT 330V060 CAVOK 32/06 Q1014 NOSIG
LEMD 031400Z 01008KT 320V060 CAVOK 32/06 Q1015 NOSIG
LEMD 031330Z 36010KT 300V090 CAVOK 32/07 Q1015 NOSIG
LEMD 031300Z 02008KT 310V070 CAVOK 32/07 Q1015 NOSIG
LEMD 031230Z 01010KT 330V050 CAVOK 31/07 Q1016 NOSIG
LEMD 031200Z 36006KT CAVOK 30/06 Q1016 NOSIG
LEMD 031130Z 36005G23KT CAVOK 30/06 Q1017 NOSIG
LEMD 031100Z 02006KT CAVOK 29/07 Q1017 NOSIG
LEMD 031030Z 35003KT CAVOK 28/07 Q1017 NOSIG
LEMD 031000Z 35007KT 310V070 CAVOK 27/07 Q1017 NOSIG
LEMD 030930Z 01005KT 330V090 CAVOK 27/08 Q1017 NOSIG
LEMD 030900Z 03005KT 330V090 CAVOK 25/08 Q1017 NOSIG
LEMD 030830Z VRB05KT CAVOK 24/08 Q1017 NOSIG
LEMD 030800Z 06004KT 340V130 CAVOK 23/08 Q1017 NOSIG
LEMD 030730Z 06004KT 340V140 CAVOK 22/08 Q1017 NOSIG
LEMD 030700Z VRB04KT CAVOK 21/09 Q1017 NOSIG
LEMD 030630Z 06005KT 340V130 CAVOK 20/09 Q1017 NOSIG
LEMD 030600Z 05005KT CAVOK 20/09 Q1017 NOSIG
LEMD 030530Z VRB04KT CAVOK 19/09 Q1017 NOSIG
LEMD 030500Z 05003KT CAVOK 19/10 Q1017 NOSIG
LEMD 030430Z VRB04KT CAVOK 20/10 Q1017 NOSIG
LEMD 030400Z 07004KT 020V160 CAVOK 20/10 Q1016 NOSIG
LEMD 030330Z 05007KT CAVOK 20/11 Q1016 NOSIG
LEMD 030300Z 06006KT 350V120 CAVOK 20/11 Q1016 NOSIG
LEMD 030230Z 07007KT CAVOK 21/11 Q1016 NOSIG
LEMD 030200Z 06007KT CAVOK 21/11 Q1016 NOSIG
LEMD 030130Z 05008KT 340V100 CAVOK 22/11 Q1016 NOSIG
LEMD 030100Z VRB03KT CAVOK 22/11 Q1016 NOSIG
LEMD 030030Z 06006KT 360V110 CAVOK 22/11 Q1016 NOSIG
LEMD 030000Z 06006KT CAVOK 23/10 Q1016 NOSIG
LEMD 022330Z 07004KT 020V140 CAVOK 24/08 Q1016 NOSIG
LEMD 022300Z 05004KT 340V130 CAVOK 24/08 Q1017 NOSIG
LEMD 022230Z 04008KT 360V090 CAVOK 26/09 Q1016 NOSIG
LEMD 022200Z 02009KT 330V080 CAVOK 26/08 Q1016 NOSIG
LEMD 022130Z 02011G22KT 340V060 CAVOK 27/09 Q1016 NOSIG
LEMD 022100Z 02013G25KT 340V070 CAVOK 27/10 Q1015 NOSIG
LEMD 022030Z 03007KT 330V080 CAVOK 28/10 Q1015 NOSIG
LEMD 022000Z 36007KT 330V030 CAVOK 28/10 Q1014 NOSIG
LEMD 021930Z 35008KT 330V040 CAVOK 30/11 Q1014 NOSIG
LEMD 021900Z 36008KT 330V040 CAVOK 31/11 Q1014 NOSIG
LEMD 021830Z 31011KT CAVOK 33/07 Q1013 NOSIG
LEMD 021800Z 30009KT 270V330 CAVOK 35/07 Q1013 NOSIG
LEMD 021730Z 29010KT 260V330 CAVOK 35/06 Q1013 NOSIG
LEMD 021700Z 30013KT CAVOK 35/06 Q1013 NOSIG
LEMD 021630Z 28013KT 240V300 CAVOK 35/06 Q1014 NOSIG
LEMD 021600Z 25012G23KT 220V290 CAVOK 36/02 Q1014 NOSIG
LEMD 021530Z 28011KT 250V310 CAVOK 37/02 Q1014 NOSIG
LEMD 021500Z 21005G27KT CAVOK 36/06 Q1014 NOSIG
LEMD 021430Z 20012KT 190V250 CAVOK 36/06 Q1014 NOSIG
LEMD 021400Z 24005KT CAVOK 36/07 Q1014 NOSIG
LEMD 021330Z 16004KT CAVOK 35/08 Q1015 NOSIG
LEMD 021300Z 22004KT CAVOK 34/09 Q1015 NOSIG
LEMD 021230Z 27007KT 190V350 CAVOK 34/09 Q1016 NOSIG
LEMD 021200Z 26003KT CAVOK 34/09 Q1016 NOSIG
LEMD 021130Z 33002KT CAVOK 33/10 Q1017 NOSIG
LEMD 021100Z 22003KT CAVOK 32/13 Q1017 NOSIG